createdAt,value
2022-09-28T00:01:23.783Z,11.62
2022-09-28T00:03:54.651Z,11.63
2022-09-28T00:06:25.650Z,11.64
2022-09-28T00:08:53.526Z,11.67
2022-09-28T00:11:24.257Z,11.69
2022-09-28T00:13:56.716Z,11.72
2022-09-28T00:16:28.775Z,11.71
2022-09-28T00:18:56.568Z,11.70
2022-09-28T00:21:30.656Z,11.64
2022-09-28T00:24:13.056Z,11.63
2022-09-28T00:27:03.006Z,11.66
2022-09-28T00:29:37.495Z,11.60
2022-09-28T00:32:12.255Z,11.66
2022-09-28T00:34:46.099Z,11.66
2022-09-28T00:37:20.958Z,11.65
2022-09-28T00:39:52.042Z,11.71
2022-09-28T00:42:23.817Z,11.64
2022-09-28T00:44:55.735Z,11.73
2022-09-28T00:47:55.244Z,11.68
2022-09-28T00:50:36.668Z,11.61
2022-09-28T00:53:30.343Z,11.60
2022-09-28T00:56:04.947Z,11.56
2022-09-28T00:58:44.742Z,11.50
2022-09-28T01:01:13.220Z,11.54
2022-09-28T01:03:45.406Z,11.51
2022-09-28T01:06:21.179Z,11.54
2022-09-28T01:08:53.914Z,11.50
2022-09-28T01:11:21.858Z,11.38
2022-09-28T01:13:53.373Z,11.43
2022-09-28T01:16:54.672Z,11.42
2022-09-28T01:19:57.755Z,11.42
2022-09-28T01:23:22.822Z,11.31
2022-09-28T01:26:25.407Z,11.38
2022-09-28T01:29:17.642Z,11.32
2022-09-28T01:32:03.391Z,11.36
2022-09-28T01:34:47.352Z,11.35
2022-09-28T01:37:21.578Z,11.33
2022-09-28T01:39:52.629Z,11.37
2022-09-28T01:42:31.753Z,11.32
2022-09-28T01:45:09.572Z,11.23
2022-09-28T01:47:40.616Z,11.24
2022-09-28T01:50:16.307Z,11.17
2022-09-28T01:53:03.892Z,11.11
2022-09-28T01:56:07.374Z,10.95
2022-09-28T01:58:46.874Z,10.91
2022-09-28T02:01:55.955Z,10.80
2022-09-28T02:04:53.312Z,10.72
2022-09-28T02:07:46.880Z,10.61
2022-09-28T02:10:22.620Z,10.54
2022-09-28T02:12:59.926Z,10.54
2022-09-28T02:15:37.337Z,10.52
2022-09-28T02:18:05.012Z,10.51
2022-09-28T02:20:36.506Z,10.46
2022-09-28T02:23:05.518Z,10.37
2022-09-28T02:25:47.214Z,10.33
2022-09-28T02:28:14.649Z,10.29
2022-09-28T02:30:44.872Z,10.20
2022-09-28T02:33:37.328Z,10.21
2022-09-28T02:36:05.791Z,10.20
2022-09-28T02:38:33.562Z,10.23
2022-09-28T02:41:50.211Z,10.14
2022-09-28T02:44:51.266Z,10.17
2022-09-28T02:47:50.760Z,10.10
2022-09-28T02:50:45.272Z,10.05
2022-09-28T02:53:35.436Z,9.94
2022-09-28T02:56:49.877Z,9.71
2022-09-28T02:59:50.602Z,9.60
2022-09-28T03:02:34.942Z,9.58
2022-09-28T03:05:06.788Z,9.57
2022-09-28T03:08:02.036Z,9.54
2022-09-28T03:10:56.238Z,9.41
2022-09-28T03:13:26.956Z,9.44
2022-09-28T03:16:18.026Z,9.38
2022-09-28T03:18:46.484Z,9.30
2022-09-28T03:21:15.580Z,9.35
2022-09-28T03:23:43.755Z,9.29
2022-09-28T03:26:16.873Z,9.32
2022-09-28T03:28:44.175Z,9.33
2022-09-28T03:31:11.623Z,9.36
2022-09-28T03:33:38.921Z,9.35
2022-09-28T03:36:06.385Z,9.39
2022-09-28T03:38:33.737Z,9.45
2022-09-28T03:41:01.019Z,9.46
2022-09-28T03:43:30.848Z,9.44
2022-09-28T03:46:01.862Z,9.46
2022-09-28T03:48:33.210Z,9.46
2022-09-28T03:51:04.828Z,9.47
2022-09-28T03:53:33.825Z,9.50
2022-09-28T03:56:12.239Z,9.51
2022-09-28T03:58:39.896Z,9.44
2022-09-28T04:01:17.716Z,9.46
2022-09-28T04:03:47.159Z,9.42
2022-09-28T04:06:15.159Z,9.36
2022-09-28T04:08:43.544Z,9.38
2022-09-28T04:11:11.125Z,9.35
2022-09-28T04:13:38.470Z,9.34
2022-09-28T04:16:06.098Z,9.38
2022-09-28T04:18:34.663Z,9.42
2022-09-28T04:21:06.816Z,9.44
2022-09-28T04:23:36.967Z,9.46
2022-09-28T04:26:07.174Z,9.39
2022-09-28T04:28:52.726Z,9.42
2022-09-28T04:31:23.798Z,9.41
2022-09-28T04:33:51.218Z,9.34
2022-09-28T04:36:19.816Z,9.36
2022-09-28T04:38:54.505Z,9.37
2022-09-28T04:41:22.762Z,9.37
2022-09-28T04:43:50.813Z,9.38
2022-09-28T04:46:18.475Z,9.37
2022-09-28T04:48:45.897Z,9.44
2022-09-28T04:51:13.399Z,9.46
2022-09-28T04:53:40.683Z,9.46
2022-09-28T04:56:12.791Z,9.42
2022-09-28T04:58:41.426Z,9.43
2022-09-28T05:01:15.938Z,9.49
2022-09-28T05:03:44.939Z,9.57
2022-09-28T05:06:15.959Z,9.64
2022-09-28T05:08:43.328Z,9.71
2022-09-28T05:11:13.515Z,9.71
2022-09-28T05:13:45.990Z,9.69
2022-09-28T05:16:16.233Z,9.78
2022-09-28T05:18:43.898Z,9.68
2022-09-28T05:21:14.350Z,9.67
2022-09-28T05:23:47.415Z,9.77
2022-09-28T05:26:14.958Z,9.84
2022-09-28T05:28:42.644Z,9.91
2022-09-28T05:31:09.822Z,9.94
2022-09-28T05:33:37.309Z,9.96
2022-09-28T05:36:05.073Z,9.94
2022-09-28T05:38:32.376Z,9.94
2022-09-28T05:41:03.185Z,10.03
2022-09-28T05:43:33.275Z,10.05
2022-09-28T05:46:00.757Z,10.17
2022-09-28T05:48:28.466Z,10.16
2022-09-28T05:50:56.219Z,10.27
2022-09-28T05:53:24.273Z,10.46
2022-09-28T05:55:51.540Z,10.67
2022-09-28T05:58:19.010Z,10.76
2022-09-28T06:00:46.237Z,10.90
2022-09-28T06:03:14.842Z,10.89
2022-09-28T06:05:42.349Z,10.83
2022-09-28T06:08:13.492Z,10.85
2022-09-28T06:10:41.063Z,10.87
2022-09-28T06:13:09.079Z,10.85
2022-09-28T06:15:38.017Z,10.79
2022-09-28T06:18:16.889Z,10.64
2022-09-28T06:20:44.457Z,10.56
2022-09-28T06:23:13.584Z,10.55
2022-09-28T06:25:41.858Z,10.48
2022-09-28T06:28:14.830Z,10.50
2022-09-28T06:30:43.872Z,10.55
2022-09-28T06:33:15.528Z,10.59
2022-09-28T06:35:43.147Z,10.58
2022-09-28T06:38:11.690Z,10.61
2022-09-28T06:40:39.602Z,10.55
2022-09-28T06:43:15.202Z,10.61
2022-09-28T06:45:43.592Z,10.57
2022-09-28T06:48:11.577Z,10.62
2022-09-28T06:50:41.495Z,10.61
2022-09-28T06:53:13.670Z,10.60
2022-09-28T06:55:43.449Z,10.61
2022-09-28T06:58:14.486Z,10.67
2022-09-28T07:00:44.198Z,10.68
2022-09-28T07:03:19.119Z,10.77
2022-09-28T07:05:51.138Z,11.01
2022-09-28T07:08:20.326Z,11.78
2022-09-28T07:10:49.830Z,12.60
2022-09-28T07:13:43.648Z,13.20
2022-09-28T07:16:05.733Z,13.67
2022-09-28T07:18:33.234Z,14.02
2022-09-28T07:21:02.881Z,17.86
2022-09-28T07:23:30.967Z,20.36
2022-09-28T07:26:03.909Z,22.28
2022-09-28T07:28:34.208Z,24.31
2022-09-28T07:31:03.452Z,26.02
2022-09-28T07:33:32.864Z,26.36
2022-09-28T07:36:06.638Z,26.57
2022-09-28T07:38:34.334Z,25.79
2022-09-28T07:41:14.363Z,27.33
2022-09-28T07:43:42.407Z,26.26
2022-09-28T07:46:12.516Z,27.62
2022-09-28T07:48:45.834Z,29.41
2022-09-28T07:51:15.319Z,30.65
2022-09-28T07:53:42.540Z,30.32
2022-09-28T07:56:10.007Z,27.46
2022-09-28T07:58:39.593Z,24.82
2022-09-28T08:01:13.087Z,23.76
2022-09-28T08:03:44.374Z,23.04
2022-09-28T08:06:14.876Z,22.92
2022-09-28T08:08:44.790Z,26.18
2022-09-28T08:11:18.866Z,30.00
2022-09-28T08:13:47.481Z,32.15
2022-09-28T08:16:14.782Z,33.72
2022-09-28T08:18:42.222Z,34.77
2022-09-28T08:21:43.075Z,34.37
2022-09-28T08:24:10.379Z,35.85
2022-09-28T08:26:37.934Z,37.79
2022-09-28T08:29:06.304Z,39.32
2022-09-28T08:31:33.954Z,41.70
2022-09-28T08:34:01.789Z,40.46
2022-09-28T08:36:29.114Z,40.59
2022-09-28T08:38:56.318Z,39.76
2022-09-28T08:41:44.178Z,42.08
2022-09-28T08:44:26.542Z,42.50
2022-09-28T08:47:33.423Z,41.24
2022-09-28T08:50:07.752Z,38.73
2022-09-28T08:52:40.703Z,40.54
2022-09-28T08:55:22.165Z,40.81
2022-09-28T08:58:09.470Z,41.70
2022-09-28T09:00:52.654Z,41.96
2022-09-28T09:03:35.970Z,42.67
2022-09-28T09:06:55.675Z,41.79
2022-09-28T09:09:34.909Z,36.39
2022-09-28T09:12:34.028Z,29.74
2022-09-28T09:15:41.308Z,26.10
2022-09-28T09:18:33.179Z,25.54
2022-09-28T09:21:16.575Z,23.55
2022-09-28T09:23:57.346Z,23.48
2022-09-28T09:26:39.641Z,31.73
2022-09-28T09:29:20.878Z,37.50
2022-09-28T09:32:29.254Z,39.08
2022-09-28T09:35:25.751Z,40.49
2022-09-28T09:38:46.932Z,43.70
2022-09-28T09:41:48.861Z,43.33
2022-09-28T09:44:39.052Z,45.23
2022-09-28T09:47:16.471Z,38.96
2022-09-28T09:50:08.412Z,32.42
2022-09-28T09:52:55.849Z,28.91
2022-09-28T09:55:29.923Z,30.24
2022-09-28T09:58:10.286Z,37.91
2022-09-28T10:00:47.356Z,43.04
2022-09-28T10:03:32.651Z,45.50
2022-09-28T10:06:19.565Z,44.65
2022-09-28T10:09:06.157Z,46.11
2022-09-28T10:11:50.287Z,48.00
2022-09-28T10:14:22.128Z,48.21
2022-09-28T10:16:58.312Z,42.74
2022-09-28T10:19:34.855Z,39.19
2022-09-28T10:22:06.411Z,39.74
2022-09-28T10:24:49.996Z,44.72
2022-09-28T10:27:26.571Z,46.06
2022-09-28T10:30:12.846Z,48.49
2022-09-28T10:32:44.970Z,50.73
2022-09-28T10:35:30.021Z,51.26
2022-09-28T10:38:06.164Z,52.40
2022-09-28T10:40:47.996Z,52.35
2022-09-28T10:43:38.480Z,50.54
2022-09-28T10:46:15.181Z,51.05
2022-09-28T10:49:03.273Z,50.91
2022-09-28T10:51:54.858Z,51.19
2022-09-28T10:54:31.562Z,49.88
2022-09-28T10:57:00.060Z,51.06
2022-09-28T10:59:30.420Z,51.46
2022-09-28T11:02:13.066Z,48.19
2022-09-28T11:04:43.816Z,40.02
2022-09-28T11:07:33.335Z,34.20
2022-09-28T11:10:02.326Z,32.46
2022-09-28T11:12:43.372Z,32.52
2022-09-28T11:15:24.446Z,40.70
2022-09-28T11:17:51.847Z,38.49
2022-09-28T11:20:27.881Z,34.93
2022-09-28T11:23:01.533Z,31.95
2022-09-28T11:25:31.451Z,29.16
2022-09-28T11:28:04.711Z,28.70
2022-09-28T11:30:53.626Z,27.36
2022-09-28T11:33:40.239Z,26.39
2022-09-28T11:36:13.739Z,25.61
2022-09-28T11:39:18.107Z,24.87
2022-09-28T11:42:39.783Z,23.84
2022-09-28T11:45:45.954Z,24.27
2022-09-28T11:48:21.861Z,28.08
2022-09-28T11:51:04.185Z,29.60
2022-09-28T11:53:47.846Z,28.16
2022-09-28T11:56:38.378Z,30.44
2022-09-28T11:59:15.259Z,29.38
2022-09-28T12:01:53.491Z,27.39
2022-09-28T12:04:52.909Z,26.00
2022-09-28T12:07:40.295Z,24.71
2022-09-28T12:10:48.242Z,23.69
2022-09-28T12:13:22.536Z,23.55
2022-09-28T12:19:19.304Z,24.41
2022-09-28T12:21:55.971Z,25.34
2022-09-28T12:24:43.491Z,25.54
2022-09-28T12:27:18.570Z,26.26
2022-09-28T12:30:12.990Z,28.43
2022-09-28T12:33:04.312Z,29.84
2022-09-28T12:35:34.544Z,30.65
2022-09-28T12:39:14.731Z,30.94
2022-09-28T12:42:34.631Z,31.05
2022-09-28T12:45:22.935Z,28.92
2022-09-28T12:48:40.104Z,27.41
2022-09-28T12:51:49.137Z,30.51
2022-09-28T12:55:08.180Z,27.61
2022-09-28T12:57:41.508Z,25.15
2022-09-28T13:00:25.407Z,23.98
2022-09-28T13:03:45.742Z,22.99
2022-09-28T13:06:47.808Z,22.42
2022-09-28T13:09:25.266Z,21.77
2022-09-28T13:12:07.426Z,21.45
2022-09-28T13:15:05.072Z,20.93
2022-09-28T13:18:28.026Z,20.53
2022-09-28T13:21:26.341Z,20.26
2022-09-28T13:24:14.416Z,20.04
2022-09-28T13:26:48.394Z,19.91
2022-09-28T13:29:20.185Z,19.89
2022-09-28T13:31:54.848Z,19.95
2022-09-28T13:34:28.911Z,19.67
2022-09-28T13:37:16.928Z,19.36
2022-09-28T13:39:55.178Z,19.24
2022-09-28T13:42:36.975Z,19.03
2022-09-28T13:45:13.977Z,18.88
2022-09-28T13:48:05.384Z,18.71
2022-09-28T13:51:13.152Z,18.55
2022-09-28T13:53:51.257Z,18.56
2022-09-28T13:56:44.281Z,18.52
2022-09-28T13:59:30.304Z,18.49
2022-09-28T14:02:41.280Z,18.46
2022-09-28T14:05:37.046Z,18.54
2022-09-28T14:08:11.393Z,18.58
2022-09-28T14:10:54.953Z,18.59
2022-09-28T14:13:41.881Z,18.44
2022-09-28T14:16:27.655Z,18.39
2022-09-28T14:19:09.415Z,18.28
2022-09-28T14:21:46.113Z,18.10
2022-09-28T14:24:32.354Z,18.05
2022-09-28T14:27:32.538Z,17.90
2022-09-28T14:30:12.287Z,17.87
2022-09-28T14:32:48.194Z,17.67
2022-09-28T14:35:32.659Z,17.52
2022-09-28T14:38:33.058Z,17.35
2022-09-28T14:41:13.850Z,17.23
2022-09-28T14:43:44.878Z,17.18
2022-09-28T14:46:15.120Z,17.07
2022-09-28T14:48:51.118Z,17.07
2022-09-28T14:51:27.626Z,17.05
2022-09-28T14:54:12.524Z,17.11
2022-09-28T14:56:51.879Z,17.30
2022-09-28T14:59:27.503Z,17.55
2022-09-28T15:02:01.610Z,17.52
2022-09-28T15:04:31.845Z,17.52
2022-09-28T15:07:00.437Z,17.44
2022-09-28T15:09:37.703Z,17.29
2022-09-28T15:12:18.780Z,17.08
2022-09-28T15:14:56.015Z,16.94
2022-09-28T15:17:30.495Z,16.88
2022-09-28T15:20:30.611Z,16.81
2022-09-28T15:23:00.188Z,16.80
2022-09-28T15:25:32.853Z,16.59
2022-09-28T15:28:17.966Z,16.59
2022-09-28T15:30:45.906Z,16.50
2022-09-28T15:33:50.986Z,16.46
2022-09-28T15:36:26.629Z,16.42
2022-09-28T15:39:13.033Z,16.29
2022-09-28T15:41:46.455Z,16.30
2022-09-28T15:44:33.093Z,16.18
2022-09-28T15:47:15.283Z,16.11
2022-09-28T15:50:21.948Z,15.98
2022-09-28T15:53:05.553Z,15.72
2022-09-28T15:55:39.312Z,15.51
2022-09-28T15:58:22.895Z,15.39
2022-09-28T16:01:25.931Z,15.30
2022-09-28T16:03:53.337Z,15.30
2022-09-28T16:06:21.487Z,15.30
2022-09-28T16:08:49.107Z,15.29
2022-09-28T16:11:31.565Z,15.32
2022-09-28T16:14:08.076Z,15.36
2022-09-28T16:16:47.559Z,15.19
2022-09-28T16:19:37.104Z,14.96
2022-09-28T16:22:08.167Z,14.92
2022-09-28T16:24:39.237Z,14.89
2022-09-28T16:27:30.301Z,14.70
2022-09-28T16:30:21.106Z,14.65
2022-09-28T16:32:53.945Z,14.67
2022-09-28T16:35:27.545Z,14.55
2022-09-28T16:38:16.271Z,14.35
2022-09-28T16:40:49.853Z,14.29
2022-09-28T16:43:27.064Z,14.26
2022-09-28T16:46:05.258Z,14.17
2022-09-28T16:48:49.785Z,14.19
2022-09-28T16:51:23.137Z,14.16
2022-09-28T16:54:08.955Z,14.15
2022-09-28T16:56:37.367Z,14.07
2022-09-28T16:59:04.879Z,14.01
2022-09-28T17:01:33.059Z,14.02
2022-09-28T17:04:00.628Z,14.01
2022-09-28T17:06:28.191Z,14.03
2022-09-28T17:08:56.817Z,14.00
2022-09-28T17:11:25.197Z,14.00
2022-09-28T17:13:58.406Z,14.00
2022-09-28T17:19:25.146Z,13.94
2022-09-28T17:21:53.213Z,14.00
2022-09-28T17:24:21.384Z,13.99
2022-09-28T17:26:51.819Z,13.91
2022-09-28T17:29:20.003Z,13.89
2022-09-28T17:31:48.027Z,13.82
2022-09-28T17:34:16.675Z,13.81
2022-09-28T17:36:45.251Z,13.74
2022-09-28T17:39:19.114Z,13.74
2022-09-28T17:41:46.870Z,13.61
2022-09-28T17:44:16.245Z,13.63
2022-09-28T17:46:48.756Z,13.57
2022-09-28T17:49:17.126Z,13.56
2022-09-28T17:51:44.483Z,13.52
2022-09-28T17:54:13.088Z,13.52
2022-09-28T17:56:40.618Z,13.55
2022-09-28T17:59:12.761Z,13.52
2022-09-28T18:01:41.157Z,13.54
2022-09-28T18:04:23.018Z,13.51
2022-09-28T18:06:55.376Z,13.55
2022-09-28T18:09:25.285Z,13.57
2022-09-28T18:12:01.102Z,13.60
2022-09-28T18:14:28.913Z,13.60
2022-09-28T18:16:57.131Z,13.64
2022-09-28T18:19:27.515Z,13.69
2022-09-28T18:21:58.775Z,13.67
2022-09-28T18:24:26.168Z,13.72
2022-09-28T18:26:53.467Z,13.74
2022-09-28T18:29:21.026Z,13.78
2022-09-28T18:31:48.889Z,13.78
2022-09-28T18:34:16.478Z,13.79
2022-09-28T18:36:44.250Z,13.78
2022-09-28T18:39:11.781Z,13.77
2022-09-28T18:41:39.153Z,13.78
2022-09-28T18:44:06.672Z,13.80
2022-09-28T18:46:36.757Z,13.81
2022-09-28T18:49:04.961Z,13.81
2022-09-28T18:51:32.645Z,13.82
2022-09-28T18:54:06.756Z,13.81
2022-09-28T18:56:37.450Z,13.78
2022-09-28T18:59:12.133Z,13.74
2022-09-28T19:01:42.054Z,13.74
2022-09-28T19:04:11.810Z,13.75
2022-09-28T19:06:42.109Z,13.72
2022-09-28T19:09:10.344Z,13.69
2022-09-28T19:11:38.025Z,13.67
2022-09-28T19:14:05.509Z,13.70
2022-09-28T19:16:34.197Z,13.71
2022-09-28T19:19:02.894Z,13.62
2022-09-28T19:21:31.060Z,13.53
2022-09-28T19:24:02.461Z,13.53
2022-09-28T19:26:31.496Z,13.54
2022-09-28T19:28:59.709Z,13.55
2022-09-28T19:31:28.600Z,13.55
2022-09-28T19:33:55.839Z,13.53
2022-09-28T19:36:28.710Z,13.55
2022-09-28T19:38:58.944Z,13.57
2022-09-28T19:41:43.794Z,13.58
2022-09-28T19:44:25.265Z,13.58
2022-09-28T19:47:10.173Z,13.53
2022-09-28T19:49:40.919Z,13.57
2022-09-28T19:52:17.119Z,13.55
2022-09-28T19:54:57.032Z,13.48
2022-09-28T19:57:28.469Z,13.50
2022-09-28T20:00:01.809Z,13.49
2022-09-28T20:02:29.899Z,13.47
2022-09-28T20:04:57.697Z,13.48
2022-09-28T20:07:24.957Z,13.43
2022-09-28T20:09:52.273Z,13.44
2022-09-28T20:12:20.075Z,13.50
2022-09-28T20:14:47.321Z,13.41
2022-09-28T20:17:14.670Z,13.42
2022-09-28T20:19:48.039Z,13.45
2022-09-28T20:22:19.417Z,13.34
2022-09-28T20:24:46.866Z,13.37
2022-09-28T20:27:14.126Z,13.33
2022-09-28T20:29:43.129Z,13.37
2022-09-28T20:32:11.685Z,13.39
2022-09-28T20:34:38.979Z,13.39
2022-09-28T20:37:06.615Z,13.32
2022-09-28T20:39:34.564Z,13.33
2022-09-28T20:42:02.124Z,13.37
2022-09-28T20:44:29.399Z,13.33
2022-09-28T20:46:56.908Z,13.35
2022-09-28T20:49:24.642Z,13.33
2022-09-28T20:51:51.867Z,13.33
2022-09-28T20:54:21.133Z,13.32
2022-09-28T20:56:48.420Z,13.31
2022-09-28T20:59:22.986Z,13.33
2022-09-28T21:01:51.138Z,13.33
2022-09-28T21:04:19.533Z,13.36
2022-09-28T21:06:47.409Z,13.38
2022-09-28T21:09:14.984Z,13.39
2022-09-28T21:11:42.552Z,13.40
2022-09-28T21:14:10.421Z,13.41
2022-09-28T21:16:39.068Z,13.38
2022-09-28T21:19:06.998Z,13.34
2022-09-28T21:21:34.541Z,13.28
2022-09-28T21:24:02.583Z,13.29
2022-09-28T21:26:31.804Z,13.31
2022-09-28T21:29:11.960Z,13.24
2022-09-28T21:31:42.481Z,13.20
2022-09-28T21:34:19.474Z,13.15
2022-09-28T21:36:53.429Z,13.20
2022-09-28T21:39:21.451Z,13.17
2022-09-28T21:41:51.930Z,13.13
2022-09-28T21:44:19.215Z,13.16
2022-09-28T21:46:46.693Z,13.15
2022-09-28T21:49:14.351Z,13.11
2022-09-28T21:51:41.703Z,13.12
2022-09-28T21:54:09.015Z,13.12
2022-09-28T21:56:36.414Z,13.08
2022-09-28T21:59:03.779Z,13.13
2022-09-28T22:01:31.929Z,13.11
2022-09-28T22:03:59.555Z,13.06
2022-09-28T22:06:30.496Z,13.06
2022-09-28T22:08:58.446Z,13.03
2022-09-28T22:11:28.752Z,13.04
2022-09-28T22:14:00.193Z,13.01
2022-09-28T22:16:31.436Z,13.03
2022-09-28T22:19:00.052Z,13.04
2022-09-28T22:21:32.066Z,13.06
2022-09-28T22:24:06.609Z,13.04
2022-09-28T22:26:37.166Z,13.07
2022-09-28T22:29:08.959Z,13.04
2022-09-28T22:31:39.782Z,13.01
2022-09-28T22:34:08.958Z,13.04
2022-09-28T22:36:36.726Z,13.03
2022-09-28T22:39:04.916Z,13.02
2022-09-28T22:41:32.579Z,13.00
2022-09-28T22:44:00.060Z,12.98
2022-09-28T22:46:31.835Z,13.00
2022-09-28T22:49:00.862Z,12.99
2022-09-28T22:51:30.998Z,12.99
2022-09-28T22:53:58.940Z,12.98
2022-09-28T22:56:26.493Z,12.97
2022-09-28T22:58:53.977Z,13.02
2022-09-28T23:01:25.086Z,12.98
2022-09-28T23:03:54.232Z,12.99
2022-09-28T23:06:26.060Z,12.98
2022-09-28T23:08:53.854Z,12.99
2022-09-28T23:11:21.483Z,12.99
2022-09-28T23:13:54.358Z,12.97
2022-09-28T23:16:23.660Z,12.96
2022-09-28T23:18:51.520Z,12.93
2022-09-28T23:21:22.467Z,12.92
2022-09-28T23:23:57.344Z,12.94
2022-09-28T23:26:28.813Z,12.94
2022-09-28T23:28:57.335Z,12.98
2022-09-28T23:31:31.209Z,13.02
2022-09-28T23:34:06.757Z,13.04
2022-09-28T23:36:34.610Z,13.10
2022-09-28T23:39:03.628Z,13.13
2022-09-28T23:41:30.944Z,13.15
2022-09-28T23:43:58.298Z,13.13
2022-09-28T23:46:25.806Z,13.09
2022-09-28T23:48:53.174Z,13.11
2022-09-28T23:51:20.429Z,13.07
2022-09-28T23:53:47.847Z,13.06
2022-09-28T23:56:15.415Z,13.02
2022-09-28T23:58:43.020Z,12.96
